Time;durP1;ratioP1;P1;durP2;ratioP2;P2;SDS_P1;SDS_P2;PMS_P1;PMS_P2;Temp;Humidity;BMP_temperature;BMP_pressure;BME280_temperature;BME280_humidity;BME280_pressure;Samples;Min_cycle;Max_cycle;Signal;HPM_P1;HPM_P2
2023/07/16 00:01:25;;;;;;;4.22;3.83;;;;;;;;;;5051822;28;20738;-86
2023/07/16 00:03:51;;;;;;;4.25;3.40;;;;;;;;;;5059444;28;20511;-85
2023/07/16 00:06:17;;;;;;;4.20;3.35;;;;;;;;;;5052425;28;20389;-86
2023/07/16 00:08:43;;;;;;;4.63;3.30;;;;;;;;;;5052249;28;20432;-86
2023/07/16 00:11:09;;;;;;;3.30;3.00;;;;;;;;;;5052267;28;20469;-86
2023/07/16 00:13:35;;;;;;;3.20;2.90;;;;;;;;;;5052562;28;20477;-86
2023/07/16 00:16:01;;;;;;;3.22;2.92;;;;;;;;;;5042429;28;20442;-85
2023/07/16 00:18:28;;;;;;;2.90;2.70;;;;;;;;;;5051568;28;20869;-86
2023/07/16 00:20:54;;;;;;;3.00;2.60;;;;;;;;;;5062566;28;20368;-88
2023/07/16 00:23:20;;;;;;;3.20;2.90;;;;;;;;;;5055077;28;20910;-87
2023/07/16 00:25:47;;;;;;;3.03;2.63;;;;;;;;;;5052267;28;20382;-86
2023/07/16 00:28:13;;;;;;;2.95;2.70;;;;;;;;;;5037344;28;20406;-89
2023/07/16 00:30:39;;;;;;;3.70;2.47;;;;;;;;;;5052442;28;20939;-84
2023/07/16 00:33:05;;;;;;;4.07;2.63;;;;;;;;;;5052108;28;20882;-83
2023/07/16 00:35:31;;;;;;;2.60;2.40;;;;;;;;;;5051912;28;20444;-84
2023/07/16 00:37:57;;;;;;;4.60;2.10;;;;;;;;;;5039226;28;20391;-84
2023/07/16 00:40:23;;;;;;;3.40;2.40;;;;;;;;;;5049995;28;20389;-84
2023/07/16 00:42:48;;;;;;;2.50;1.88;;;;;;;;;;5052145;28;20389;-87
2023/07/16 00:45:15;;;;;;;2.15;1.95;;;;;;;;;;5052098;28;20455;-87
2023/07/16 00:47:42;;;;;;;3.20;1.63;;;;;;;;;;5044385;28;20377;-85
2023/07/16 00:50:08;;;;;;;2.03;1.52;;;;;;;;;;5040436;28;20387;-86
2023/07/16 00:52:34;;;;;;;2.78;1.70;;;;;;;;;;5045630;28;20378;-86
2023/07/16 00:55:00;;;;;;;1.85;1.27;;;;;;;;;;5039501;28;20815;-86
2023/07/16 00:57:26;;;;;;;2.10;1.40;;;;;;;;;;5050652;28;20472;-86
2023/07/16 00:59:52;;;;;;;1.30;1.20;;;;;;;;;;5048991;28;20411;-86
2023/07/16 01:02:18;;;;;;;1.80;1.30;;;;;;;;;;5052076;28;20401;-86
2023/07/16 01:04:44;;;;;;;1.40;1.30;;;;;;;;;;5046235;28;20869;-87
2023/07/16 01:07:12;;;;;;;1.33;1.20;;;;;;;;;;5035162;28;20423;-86
2023/07/16 01:09:41;;;;;;;2.33;1.10;;;;;;;;;;5048495;28;20383;-87
2023/07/16 01:12:09;;;;;;;2.60;1.20;;;;;;;;;;5034774;28;20442;-86
2023/07/16 01:14:36;;;;;;;1.40;1.10;;;;;;;;;;5055603;28;20377;-88
2023/07/16 01:17:06;;;;;;;1.50;1.20;;;;;;;;;;5056145;28;20409;-87
2023/07/16 01:19:32;;;;;;;1.30;0.90;;;;;;;;;;5061548;28;20381;-87
2023/07/16 01:21:58;;;;;;;1.70;1.00;;;;;;;;;;5055596;28;20382;-87
2023/07/16 01:24:24;;;;;;;1.70;1.20;;;;;;;;;;5055793;28;20404;-87
2023/07/16 01:27:09;;;;;;;1.70;1.20;;;;;;;;;;5055499;28;20426;-87
2023/07/16 01:29:43;;;;;;;2.00;1.10;;;;;;;;;;5055401;28;20384;-87
2023/07/16 01:32:11;;;;;;;1.00;0.90;;;;;;;;;;5055549;28;20393;-86
2023/07/16 01:34:37;;;;;;;1.55;0.85;;;;;;;;;;5055525;28;20385;-87
2023/07/16 01:37:04;;;;;;;0.87;0.87;;;;;;;;;;5055287;28;20488;-87
2023/07/16 01:39:32;;;;;;;3.63;1.27;;;;;;;;;;5055626;28;20732;-88
2023/07/16 01:41:58;;;;;;;1.10;1.00;;;;;;;;;;5055442;28;20468;-87
2023/07/16 01:44:24;;;;;;;2.25;1.23;;;;;;;;;;5054226;28;20424;-87
2023/07/16 01:47:00;;;;;;;1.15;1.00;;;;;;;;;;5055300;28;20381;-88
2023/07/16 01:49:26;;;;;;;1.70;0.90;;;;;;;;;;5055326;28;20370;-88
2023/07/16 01:51:52;;;;;;;1.15;0.90;;;;;;;;;;5049113;28;20478;-87
2023/07/16 01:54:18;;;;;;;1.30;0.90;;;;;;;;;;5055374;28;20381;-88
2023/07/16 01:56:44;;;;;;;2.80;0.95;;;;;;;;;;5051199;28;20415;-87
2023/07/16 01:59:10;;;;;;;1.80;0.90;;;;;;;;;;5049630;28;20381;-86
2023/07/16 02:01:36;;;;;;;1.10;0.90;;;;;;;;;;5042909;28;20391;-86
2023/07/16 02:04:02;;;;;;;1.10;1.00;;;;;;;;;;5055695;28;20377;-86
2023/07/16 02:06:28;;;;;;;1.38;0.90;;;;;;;;;;5062975;28;20381;-86
2023/07/16 02:08:54;;;;;;;1.23;0.90;;;;;;;;;;5054772;28;20495;-85
2023/07/16 02:11:20;;;;;;;1.27;1.00;;;;;;;;;;5049403;28;20373;-87
2023/07/16 02:13:46;;;;;;;1.90;1.10;;;;;;;;;;5054751;28;20862;-88
2023/07/16 02:16:12;;;;;;;1.27;0.73;;;;;;;;;;5054334;28;20482;-87
2023/07/16 02:18:38;;;;;;;1.55;1.10;;;;;;;;;;5054783;28;20373;-87
2023/07/16 02:21:04;;;;;;;1.50;1.10;;;;;;;;;;5054608;28;20390;-87
2023/07/16 02:23:30;;;;;;;1.20;1.10;;;;;;;;;;5054236;28;20374;-87
2023/07/16 02:25:56;;;;;;;1.30;1.20;;;;;;;;;;5057079;28;20378;-88
2023/07/16 02:28:22;;;;;;;1.05;0.95;;;;;;;;;;5046509;28;20946;-88
2023/07/16 02:30:49;;;;;;;1.52;0.85;;;;;;;;;;5033864;28;20481;-87
2023/07/16 02:33:15;;;;;;;1.17;1.07;;;;;;;;;;5047006;28;20467;-87
2023/07/16 02:35:46;;;;;;;1.70;1.10;;;;;;;;;;5053573;28;20417;-88
2023/07/16 02:38:12;;;;;;;1.45;0.90;;;;;;;;;;5053345;28;20469;-87
2023/07/16 02:40:43;;;;;;;1.10;0.97;;;;;;;;;;5054365;28;20414;-88
2023/07/16 02:43:09;;;;;;;2.00;1.10;;;;;;;;;;5052835;28;20378;-87
2023/07/16 02:45:35;;;;;;;1.65;1.20;;;;;;;;;;5053244;28;20381;-88
2023/07/16 02:48:01;;;;;;;2.03;1.08;;;;;;;;;;5054125;28;20389;-88
2023/07/16 02:50:27;;;;;;;1.90;1.00;;;;;;;;;;5053853;28;20474;-87
2023/07/16 02:52:53;;;;;;;1.27;1.10;;;;;;;;;;5053864;28;20416;-87
2023/07/16 02:55:19;;;;;;;1.33;1.00;;;;;;;;;;5053632;28;20921;-88
2023/07/16 02:57:45;;;;;;;1.65;1.00;;;;;;;;;;5053734;28;20432;-88
2023/07/16 03:00:11;;;;;;;2.35;0.85;;;;;;;;;;5053874;28;20389;-87
2023/07/16 03:02:37;;;;;;;2.67;1.02;;;;;;;;;;5053342;28;20373;-87
2023/07/16 03:05:03;;;;;;;1.98;1.33;;;;;;;;;;5046201;28;20448;-88
2023/07/16 03:07:29;;;;;;;1.35;1.00;;;;;;;;;;5047374;28;20875;-87
2023/07/16 03:09:55;;;;;;;1.17;1.08;;;;;;;;;;5051696;28;20420;-86
2023/07/16 03:12:21;;;;;;;1.40;1.23;;;;;;;;;;5043749;28;20387;-87
2023/07/16 03:14:47;;;;;;;1.30;0.98;;;;;;;;;;5053832;28;20381;-87
2023/07/16 03:17:13;;;;;;;1.30;1.17;;;;;;;;;;5053862;28;20409;-86
2023/07/16 03:19:39;;;;;;;1.20;1.00;;;;;;;;;;5052480;28;20381;-86
2023/07/16 03:22:06;;;;;;;1.58;1.10;;;;;;;;;;5053312;28;20394;-85
2023/07/16 03:24:32;;;;;;;1.75;1.10;;;;;;;;;;5066847;28;20380;-87
2023/07/16 03:26:58;;;;;;;1.45;1.10;;;;;;;;;;5053886;28;20743;-86
2023/07/16 03:29:24;;;;;;;2.20;1.20;;;;;;;;;;5053447;28;20385;-85
2023/07/16 03:31:50;;;;;;;2.00;1.00;;;;;;;;;;5052909;28;20386;-85
2023/07/16 03:34:15;;;;;;;1.17;1.00;;;;;;;;;;5053272;28;20961;-85
2023/07/16 03:36:41;;;;;;;1.50;1.10;;;;;;;;;;5052722;28;20402;-84
2023/07/16 03:39:07;;;;;;;1.30;1.20;;;;;;;;;;5052937;28;20390;-85
2023/07/16 03:41:33;;;;;;;3.00;1.40;;;;;;;;;;5052984;28;20468;-86
2023/07/16 03:43:59;;;;;;;2.10;1.15;;;;;;;;;;5052843;28;20416;-85
2023/07/16 03:46:25;;;;;;;1.90;1.30;;;;;;;;;;5035206;28;20762;-85
2023/07/16 03:48:52;;;;;;;2.10;1.13;;;;;;;;;;5034812;28;20484;-85
2023/07/16 03:51:18;;;;;;;2.58;1.20;;;;;;;;;;5034912;28;20397;-86
2023/07/16 03:53:43;;;;;;;1.80;1.30;;;;;;;;;;5052609;28;20381;-85
2023/07/16 03:56:09;;;;;;;1.42;1.20;;;;;;;;;;5052611;28;20951;-85
2023/07/16 03:58:35;;;;;;;1.35;1.20;;;;;;;;;;5052658;28;20468;-86
2023/07/16 04:01:02;;;;;;;2.55;1.30;;;;;;;;;;5052513;28;20377;-85
2023/07/16 04:03:28;;;;;;;1.38;1.13;;;;;;;;;;5060591;28;20712;-85
2023/07/16 04:06:01;;;;;;;2.13;1.10;;;;;;;;;;5031304;28;20431;-85
2023/07/16 04:08:27;;;;;;;1.35;1.00;;;;;;;;;;5059439;28;20404;-85
2023/07/16 04:10:53;;;;;;;1.83;1.10;;;;;;;;;;5072726;28;20887;-86
2023/07/16 04:13:19;;;;;;;2.38;1.08;;;;;;;;;;5074013;28;20389;-86
2023/07/16 04:15:45;;;;;;;1.52;1.20;;;;;;;;;;5066150;28;20498;-87
2023/07/16 04:18:11;;;;;;;1.30;1.00;;;;;;;;;;5066922;28;20872;-85
2023/07/16 04:20:37;;;;;;;1.88;1.02;;;;;;;;;;5044985;28;20437;-86
2023/07/16 04:23:03;;;;;;;1.88;1.10;;;;;;;;;;5050788;28;20389;-85
2023/07/16 04:25:29;;;;;;;1.70;1.10;;;;;;;;;;5059402;28;20415;-85
2023/07/16 04:27:56;;;;;;;1.42;1.10;;;;;;;;;;5072079;28;20452;-86
2023/07/16 04:30:22;;;;;;;1.30;1.20;;;;;;;;;;5071577;28;20384;-85
2023/07/16 04:32:48;;;;;;;1.90;1.10;;;;;;;;;;5072641;28;20379;-85
2023/07/16 04:35:14;;;;;;;1.15;0.98;;;;;;;;;;5079612;28;20889;-85
2023/07/16 04:37:40;;;;;;;1.73;0.95;;;;;;;;;;5063502;28;20378;-84
2023/07/16 04:40:06;;;;;;;2.17;1.17;;;;;;;;;;5076866;28;20384;-83
2023/07/16 04:42:32;;;;;;;2.00;1.10;;;;;;;;;;5072358;28;20372;-83
2023/07/16 04:44:58;;;;;;;1.60;1.20;;;;;;;;;;5072133;28;20383;-83
2023/07/16 04:47:24;;;;;;;2.60;1.10;;;;;;;;;;5071886;28;20376;-83
2023/07/16 04:49:50;;;;;;;2.00;1.00;;;;;;;;;;5072059;28;20403;-83
2023/07/16 04:52:17;;;;;;;1.77;1.20;;;;;;;;;;5071972;28;20430;-83
2023/07/16 04:54:43;;;;;;;1.30;1.00;;;;;;;;;;5071604;28;20372;-83
2023/07/16 04:57:09;;;;;;;1.08;1.00;;;;;;;;;;5071674;28;20407;-85
2023/07/16 04:59:35;;;;;;;1.23;1.02;;;;;;;;;;5070056;28;20383;-85
2023/07/16 05:02:03;;;;;;;1.20;0.95;;;;;;;;;;5069347;28;20394;-85
2023/07/16 05:04:29;;;;;;;2.15;0.90;;;;;;;;;;5065030;28;20378;-85
2023/07/16 05:06:55;;;;;;;1.10;1.00;;;;;;;;;;5065971;28;20417;-85
2023/07/16 05:09:21;;;;;;;2.05;1.05;;;;;;;;;;5049473;28;20870;-86
2023/07/16 05:11:47;;;;;;;2.20;0.97;;;;;;;;;;5050474;28;20381;-85
2023/07/16 05:14:13;;;;;;;1.10;1.00;;;;;;;;;;5042706;28;20395;-85
2023/07/16 05:16:39;;;;;;;1.25;0.90;;;;;;;;;;5050485;28;20420;-85
2023/07/16 05:19:05;;;;;;;1.48;1.05;;;;;;;;;;5045920;28;20742;-84
2023/07/16 05:21:31;;;;;;;1.80;1.05;;;;;;;;;;5044491;28;20381;-85
2023/07/16 05:23:57;;;;;;;1.45;0.82;;;;;;;;;;5043934;28;20398;-83
2023/07/16 05:26:23;;;;;;;1.40;0.90;;;;;;;;;;5049507;28;20934;-83
2023/07/16 05:28:49;;;;;;;1.17;0.80;;;;;;;;;;5054330;28;20460;-83
2023/07/16 05:31:15;;;;;;;1.07;0.70;;;;;;;;;;5059328;28;20435;-83
2023/07/16 05:33:41;;;;;;;1.00;0.80;;;;;;;;;;5048745;28;20499;-86
2023/07/16 05:36:07;;;;;;;1.50;0.88;;;;;;;;;;5050795;28;20416;-84
2023/07/16 05:38:33;;;;;;;1.83;1.05;;;;;;;;;;5051311;28;20400;-84
2023/07/16 05:41:03;;;;;;;2.30;0.90;;;;;;;;;;5040544;28;20778;-84
2023/07/16 05:43:32;;;;;;;1.67;0.80;;;;;;;;;;5054709;28;20373;-84
2023/07/16 05:45:58;;;;;;;1.27;0.77;;;;;;;;;;5056200;28;20417;-84
2023/07/16 05:48:25;;;;;;;1.40;0.80;;;;;;;;;;5056152;28;20377;-84
2023/07/16 05:50:51;;;;;;;0.97;0.80;;;;;;;;;;5054473;28;20526;-84
2023/07/16 05:53:17;;;;;;;1.70;0.80;;;;;;;;;;5055371;28;20389;-84
2023/07/16 05:55:43;;;;;;;1.40;0.80;;;;;;;;;;5055060;28;20401;-83
2023/07/16 05:58:09;;;;;;;1.50;1.17;;;;;;;;;;5054955;28;20377;-83
2023/07/16 06:00:35;;;;;;;1.77;0.90;;;;;;;;;;5054670;28;20388;-84
2023/07/16 06:03:03;;;;;;;1.10;0.95;;;;;;;;;;5046123;28;20388;-84
2023/07/16 06:05:33;;;;;;;1.87;1.00;;;;;;;;;;5063073;28;20467;-83
2023/07/16 06:07:59;;;;;;;1.70;0.95;;;;;;;;;;5054887;28;20744;-83
2023/07/16 06:10:25;;;;;;;1.13;0.80;;;;;;;;;;5053663;28;20447;-83
2023/07/16 06:12:51;;;;;;;1.15;0.80;;;;;;;;;;5054591;28;20475;-83
2023/07/16 06:15:17;;;;;;;1.60;1.02;;;;;;;;;;5055121;28;22677;-83
2023/07/16 06:17:44;;;;;;;1.15;0.88;;;;;;;;;;5047746;28;20387;-84
2023/07/16 06:20:10;;;;;;;1.23;0.90;;;;;;;;;;5048363;28;20424;-84
2023/07/16 06:22:36;;;;;;;1.23;0.90;;;;;;;;;;5054201;28;20405;-84
2023/07/16 06:25:02;;;;;;;1.77;1.00;;;;;;;;;;5054282;28;20428;-84
2023/07/16 06:27:28;;;;;;;2.55;0.95;;;;;;;;;;5033868;28;20380;-83
2023/07/16 06:29:54;;;;;;;1.80;1.10;;;;;;;;;;5050683;28;20379;-84
2023/07/16 06:32:20;;;;;;;1.48;0.93;;;;;;;;;;5054808;28;20863;-84
2023/07/16 06:34:46;;;;;;;1.73;1.00;;;;;;;;;;5055564;28;20984;-83
2023/07/16 06:37:12;;;;;;;1.57;0.90;;;;;;;;;;5034332;28;20442;-83
2023/07/16 06:39:38;;;;;;;1.88;1.02;;;;;;;;;;5058806;28;20384;-84
2023/07/16 06:42:04;;;;;;;1.83;1.05;;;;;;;;;;5056514;28;20377;-84
2023/07/16 06:44:30;;;;;;;1.48;0.95;;;;;;;;;;5054734;28;20378;-84
2023/07/16 06:46:57;;;;;;;2.35;1.20;;;;;;;;;;5054072;28;20399;-82
2023/07/16 06:49:23;;;;;;;1.55;1.10;;;;;;;;;;5054400;28;20937;-81
2023/07/16 06:51:49;;;;;;;2.00;1.10;;;;;;;;;;5054658;28;20938;-82
2023/07/16 06:54:15;;;;;;;1.30;1.13;;;;;;;;;;5053327;28;20409;-84
2023/07/16 06:56:41;;;;;;;1.30;0.90;;;;;;;;;;5052657;28;20769;-83
2023/07/16 06:59:07;;;;;;;1.13;1.00;;;;;;;;;;5054011;28;20472;-85
2023/07/16 07:01:33;;;;;;;2.55;1.25;;;;;;;;;;5053104;28;20393;-89
2023/07/16 07:03:59;;;;;;;1.65;1.15;;;;;;;;;;5054664;28;20436;-87
2023/07/16 07:06:25;;;;;;;1.92;0.80;;;;;;;;;;5053651;28;20405;-84
2023/07/16 07:08:51;;;;;;;2.90;1.15;;;;;;;;;;5051363;28;20393;-86
2023/07/16 07:11:17;;;;;;;1.80;1.03;;;;;;;;;;5053990;28;20460;-85
2023/07/16 07:13:44;;;;;;;2.30;1.17;;;;;;;;;;5054294;28;20923;-86
2023/07/16 07:16:10;;;;;;;1.45;0.80;;;;;;;;;;5068512;28;20491;-85
2023/07/16 07:18:36;;;;;;;1.50;0.90;;;;;;;;;;5046951;28;20384;-87
2023/07/16 07:21:02;;;;;;;2.35;1.00;;;;;;;;;;5043911;28;20384;-87
2023/07/16 07:23:28;;;;;;;2.83;1.10;;;;;;;;;;5052395;28;20514;-86
2023/07/16 07:25:54;;;;;;;1.85;1.10;;;;;;;;;;5058034;28;20468;-86
2023/07/16 07:28:21;;;;;;;2.33;1.10;;;;;;;;;;5052165;28;20472;-84
2023/07/16 07:30:47;;;;;;;1.73;1.00;;;;;;;;;;5052755;28;20382;-85
2023/07/16 07:33:13;;;;;;;1.27;1.00;;;;;;;;;;5051826;28;20464;-85
2023/07/16 07:35:39;;;;;;;1.30;0.90;;;;;;;;;;5053076;28;20512;-84
2023/07/16 07:38:05;;;;;;;1.93;1.20;;;;;;;;;;5053244;28;20389;-82
2023/07/16 07:40:31;;;;;;;2.22;1.20;;;;;;;;;;5052945;28;20405;-85
2023/07/16 07:42:57;;;;;;;1.95;1.08;;;;;;;;;;5052853;28;20762;-87
2023/07/16 07:45:24;;;;;;;2.28;1.10;;;;;;;;;;5051194;28;21283;-87
2023/07/16 07:47:50;;;;;;;2.05;1.17;;;;;;;;;;5044272;28;20377;-91
2023/07/16 07:50:16;;;;;;;1.83;1.27;;;;;;;;;;5052136;28;20398;-91
2023/07/16 07:52:42;;;;;;;1.83;1.08;;;;;;;;;;5054871;28;20393;-90
2023/07/16 07:55:08;;;;;;;1.42;1.05;;;;;;;;;;5052966;28;20389;-90
2023/07/16 07:57:34;;;;;;;1.93;1.00;;;;;;;;;;5052633;28;20389;-90
2023/07/16 08:00:00;;;;;;;1.70;1.10;;;;;;;;;;5055422;28;20396;-90
2023/07/16 08:02:26;;;;;;;2.45;1.13;;;;;;;;;;5061254;28;20384;-90
2023/07/16 08:04:52;;;;;;;1.98;0.90;;;;;;;;;;5052036;28;20381;-90
2023/07/16 08:07:18;;;;;;;2.80;1.20;;;;;;;;;;5056554;28;20408;-90
2023/07/16 08:09:45;;;;;;;2.00;1.27;;;;;;;;;;5065289;28;20382;-90
2023/07/16 08:12:11;;;;;;;1.95;1.30;;;;;;;;;;5053814;28;20447;-90
2023/07/16 08:14:37;;;;;;;1.85;1.00;;;;;;;;;;5054705;28;20382;-90
2023/07/16 08:17:03;;;;;;;3.30;1.20;;;;;;;;;;5054151;28;20795;-90
2023/07/16 08:19:29;;;;;;;2.65;1.20;;;;;;;;;;5053700;28;20383;-89
2023/07/16 08:21:55;;;;;;;2.78;1.13;;;;;;;;;;5052441;28;20405;-89
2023/07/16 08:24:21;;;;;;;1.70;1.00;;;;;;;;;;5050006;28;20387;-88
2023/07/16 08:26:47;;;;;;;2.10;1.08;;;;;;;;;;5041788;28;20863;-90
2023/07/16 08:29:13;;;;;;;2.28;1.17;;;;;;;;;;5045526;28;20393;-89
2023/07/16 08:31:40;;;;;;;1.37;1.07;;;;;;;;;;5049816;28;20389;-89
2023/07/16 08:34:06;;;;;;;1.90;1.10;;;;;;;;;;5039394;28;20453;-89
2023/07/16 08:36:33;;;;;;;1.47;1.00;;;;;;;;;;5031785;28;20402;-89
2023/07/16 08:38:59;;;;;;;2.78;1.08;;;;;;;;;;5064515;28;20408;-89
2023/07/16 08:41:26;;;;;;;1.52;1.05;;;;;;;;;;5053783;28;20381;-89
2023/07/16 08:43:52;;;;;;;2.28;1.15;;;;;;;;;;5067444;28;20385;-89
2023/07/16 08:46:18;;;;;;;1.55;0.82;;;;;;;;;;5053817;28;20444;-89
2023/07/16 08:48:45;;;;;;;1.20;1.10;;;;;;;;;;5053566;28;20514;-89
2023/07/16 08:51:14;;;;;;;1.60;1.00;;;;;;;;;;5054088;28;20396;-88
2023/07/16 08:53:40;;;;;;;2.10;1.30;;;;;;;;;;5052680;28;20385;-89
2023/07/16 08:56:06;;;;;;;1.53;1.03;;;;;;;;;;5052280;28;20409;-90
2023/07/16 08:58:33;;;;;;;1.73;1.25;;;;;;;;;;5053245;28;20381;-89
2023/07/16 09:00:59;;;;;;;2.78;1.45;;;;;;;;;;5053035;28;20435;-89
2023/07/16 09:03:25;;;;;;;1.50;1.00;;;;;;;;;;5052575;28;20449;-90
2023/07/16 09:05:51;;;;;;;2.70;1.00;;;;;;;;;;5053321;28;20393;-89
2023/07/16 09:08:17;;;;;;;2.08;1.30;;;;;;;;;;5044709;28;20411;-90
2023/07/16 09:10:44;;;;;;;1.30;1.20;;;;;;;;;;5038250;28;20748;-89
2023/07/16 09:13:10;;;;;;;1.80;1.20;;;;;;;;;;5053329;28;20889;-89
2023/07/16 09:15:38;;;;;;;2.25;0.90;;;;;;;;;;5049206;28;20406;-89
2023/07/16 09:18:04;;;;;;;1.35;1.00;;;;;;;;;;5054741;28;20428;-89
2023/07/16 09:20:30;;;;;;;1.63;1.10;;;;;;;;;;5055848;28;20374;-90
2023/07/16 09:22:57;;;;;;;2.20;1.33;;;;;;;;;;5044137;28;20379;-90
2023/07/16 09:25:42;;;;;;;2.25;1.20;;;;;;;;;;5057270;28;20392;-90
2023/07/16 09:28:08;;;;;;;2.77;1.23;;;;;;;;;;5056584;28;20438;-89
2023/07/16 09:30:35;;;;;;;2.42;1.00;;;;;;;;;;5052506;28;21507;-89
2023/07/16 09:33:30;;;;;;;2.22;1.98;;;;;;;;;;5047841;28;20742;-90
2023/07/16 09:35:56;;;;;;;3.33;1.20;;;;;;;;;;5053594;28;20940;-89
2023/07/16 09:38:24;;;;;;;1.98;1.10;;;;;;;;;;5058095;28;20381;-89
2023/07/16 09:40:50;;;;;;;4.47;1.48;;;;;;;;;;5057583;28;20400;-89
2023/07/16 09:43:16;;;;;;;1.70;1.10;;;;;;;;;;5059087;28;20855;-89
2023/07/16 09:45:42;;;;;;;1.70;1.02;;;;;;;;;;5042816;28;20382;-90
2023/07/16 09:48:09;;;;;;;2.70;1.38;;;;;;;;;;5056807;28;20396;-89
2023/07/16 09:50:35;;;;;;;1.92;1.20;;;;;;;;;;5056566;28;20420;-89
2023/07/16 09:53:07;;;;;;;1.40;1.00;;;;;;;;;;5056971;28;20414;-89
2023/07/16 09:55:33;;;;;;;1.80;1.02;;;;;;;;;;5056825;28;20402;-89
2023/07/16 09:58:01;;;;;;;1.30;1.20;;;;;;;;;;5054052;28;20841;-89
2023/07/16 10:00:28;;;;;;;2.03;1.13;;;;;;;;;;5056403;28;20380;-89
2023/07/16 10:02:54;;;;;;;1.20;1.10;;;;;;;;;;5056596;28;20381;-89
2023/07/16 10:05:27;;;;;;;1.40;1.08;;;;;;;;;;5059746;28;20464;-88
2023/07/16 10:07:53;;;;;;;1.85;1.10;;;;;;;;;;5041234;28;20401;-88
2023/07/16 10:10:19;;;;;;;2.00;1.17;;;;;;;;;;5043138;28;20769;-88
2023/07/16 10:13:01;;;;;;;1.10;1.00;;;;;;;;;;5054345;28;20384;-89
2023/07/16 10:15:28;;;;;;;2.38;1.08;;;;;;;;;;5064508;28;20414;-88
2023/07/16 10:17:54;;;;;;;2.13;1.23;;;;;;;;;;5059887;28;20420;-87
2023/07/16 10:20:42;;;;;;;1.40;1.30;;;;;;;;;;5055023;28;20461;-86
2023/07/16 10:23:15;;;;;;;2.13;1.30;;;;;;;;;;5054553;28;20378;-85
2023/07/16 10:25:41;;;;;;;1.70;1.45;;;;;;;;;;5055136;28;20875;-86
2023/07/16 10:28:07;;;;;;;1.45;1.10;;;;;;;;;;5054198;28;20488;-86
2023/07/16 10:30:35;;;;;;;1.67;1.35;;;;;;;;;;5054654;28;20409;-87
2023/07/16 10:33:06;;;;;;;1.73;1.35;;;;;;;;;;5068718;28;20379;-87
2023/07/16 10:35:35;;;;;;;1.63;1.30;;;;;;;;;;5054557;28;20492;-86
2023/07/16 10:38:01;;;;;;;1.45;1.20;;;;;;;;;;5054468;28;20425;-86
2023/07/16 10:40:27;;;;;;;2.55;1.13;;;;;;;;;;5054153;28;20889;-87
2023/07/16 10:42:53;;;;;;;1.58;1.10;;;;;;;;;;5043376;28;20387;-86
2023/07/16 10:45:19;;;;;;;1.80;1.10;;;;;;;;;;5040838;28;20462;-87
2023/07/16 10:47:55;;;;;;;1.52;1.10;;;;;;;;;;5054467;28;20378;-86
2023/07/16 10:50:24;;;;;;;3.83;1.27;;;;;;;;;;5054201;28;20452;-86
2023/07/16 10:52:52;;;;;;;1.67;1.48;;;;;;;;;;5044543;28;20384;-85
2023/07/16 10:55:18;;;;;;;3.90;1.80;;;;;;;;;;5048500;28;20435;-87
2023/07/16 10:57:44;;;;;;;2.58;1.20;;;;;;;;;;5054081;28;20378;-87
2023/07/16 11:00:11;;;;;;;2.03;1.20;;;;;;;;;;5054268;28;20388;-87
2023/07/16 11:02:46;;;;;;;1.30;1.17;;;;;;;;;;5054558;28;20382;-86
2023/07/16 11:05:12;;;;;;;2.60;1.30;;;;;;;;;;5054067;28;20450;-87
2023/07/16 11:07:38;;;;;;;2.13;1.40;;;;;;;;;;5053312;28;20401;-86
2023/07/16 11:10:04;;;;;;;1.75;1.40;;;;;;;;;;5053847;28;20461;-87
2023/07/16 11:12:30;;;;;;;2.10;1.33;;;;;;;;;;5053627;28;20378;-87
2023/07/16 11:14:57;;;;;;;2.33;1.40;;;;;;;;;;5051736;28;20452;-87
2023/07/16 11:17:24;;;;;;;2.22;1.10;;;;;;;;;;5053519;28;20425;-87
2023/07/16 11:19:51;;;;;;;2.47;1.50;;;;;;;;;;5053759;28;20380;-86
2023/07/16 11:22:17;;;;;;;2.97;1.58;;;;;;;;;;5053570;28;20396;-86
2023/07/16 11:24:44;;;;;;;1.45;1.10;;;;;;;;;;5053425;28;20397;-87
2023/07/16 11:27:17;;;;;;;2.93;1.30;;;;;;;;;;5053438;28;20483;-87
2023/07/16 11:30:09;;;;;;;2.58;2.10;;;;;;;;;;5053459;28;20435;-87
2023/07/16 11:32:48;;;;;;;1.73;1.27;;;;;;;;;;5040392;28;20859;-87
2023/07/16 11:35:18;;;;;;;2.72;1.50;;;;;;;;;;5053386;28;20457;-87
2023/07/16 11:37:44;;;;;;;3.53;1.13;;;;;;;;;;5053063;28;20432;-86
2023/07/16 11:40:11;;;;;;;3.13;2.50;;;;;;;;;;5052426;28;20473;-86
2023/07/16 11:42:42;;;;;;;3.58;2.50;;;;;;;;;;5053214;28;20384;-86
2023/07/16 11:45:23;;;;;;;3.30;2.20;;;;;;;;;;5065361;28;20410;-87
2023/07/16 11:47:49;;;;;;;2.92;1.70;;;;;;;;;;5054125;28;20378;-87
2023/07/16 11:50:15;;;;;;;2.58;1.10;;;;;;;;;;5050640;28;20384;-86
2023/07/16 11:52:41;;;;;;;1.60;1.17;;;;;;;;;;5049435;28;20385;-86
2023/07/16 11:55:07;;;;;;;2.33;1.27;;;;;;;;;;5037799;28;20861;-87
2023/07/16 11:57:33;;;;;;;2.13;1.42;;;;;;;;;;5048756;28;20416;-87
2023/07/16 11:59:59;;;;;;;2.20;1.42;;;;;;;;;;5051966;28;20426;-87
2023/07/16 12:02:26;;;;;;;2.17;1.77;;;;;;;;;;5052845;28;20388;-87
2023/07/16 12:04:52;;;;;;;1.23;1.10;;;;;;;;;;5052712;28;20384;-87
2023/07/16 12:07:31;;;;;;;2.10;1.20;;;;;;;;;;5052947;28;20401;-86
2023/07/16 12:09:57;;;;;;;1.83;1.45;;;;;;;;;;5053555;28;20420;-87
2023/07/16 12:12:23;;;;;;;2.95;1.60;;;;;;;;;;5056071;28;20434;-87
2023/07/16 12:14:49;;;;;;;2.20;1.60;;;;;;;;;;5065792;28;20389;-87
2023/07/16 12:17:15;;;;;;;2.92;1.77;;;;;;;;;;5053617;28;20902;-87
2023/07/16 12:19:41;;;;;;;2.55;1.13;;;;;;;;;;5053186;28;20464;-87
2023/07/16 12:22:07;;;;;;;5.40;4.65;;;;;;;;;;5053088;28;20974;-86
2023/07/16 12:24:33;;;;;;;3.58;1.92;;;;;;;;;;5053216;28;20435;-86
2023/07/16 12:26:59;;;;;;;2.72;1.40;;;;;;;;;;5032363;28;20395;-86
2023/07/16 12:29:25;;;;;;;1.48;1.00;;;;;;;;;;5044746;28;20373;-86
2023/07/16 12:31:51;;;;;;;2.55;1.48;;;;;;;;;;5052917;28;20381;-87
2023/07/16 12:34:17;;;;;;;1.98;1.15;;;;;;;;;;5042796;28;20899;-87
2023/07/16 12:36:43;;;;;;;4.00;1.30;;;;;;;;;;5048859;28;20397;-88
2023/07/16 12:39:09;;;;;;;1.67;1.02;;;;;;;;;;5055477;28;20392;-87
2023/07/16 12:41:35;;;;;;;2.13;1.20;;;;;;;;;;5038129;28;20950;-87
2023/07/16 12:44:01;;;;;;;2.83;1.42;;;;;;;;;;5052289;28;20386;-87
2023/07/16 12:46:27;;;;;;;2.72;1.45;;;;;;;;;;5052676;28;20408;-88
2023/07/16 12:48:53;;;;;;;2.65;2.17;;;;;;;;;;5052964;28;20373;-87
2023/07/16 12:51:19;;;;;;;2.47;1.45;;;;;;;;;;5052467;28;20374;-88
2023/07/16 12:53:45;;;;;;;3.95;1.40;;;;;;;;;;5055805;28;20855;-87
2023/07/16 12:56:11;;;;;;;1.92;1.20;;;;;;;;;;5056513;28;20405;-88
2023/07/16 12:58:37;;;;;;;2.13;1.20;;;;;;;;;;5043665;28;20752;-88
2023/07/16 13:01:03;;;;;;;4.05;2.03;;;;;;;;;;5040826;28;20379;-87
2023/07/16 13:03:29;;;;;;;2.45;1.67;;;;;;;;;;5039384;28;20386;-88
2023/07/16 13:05:55;;;;;;;3.33;1.50;;;;;;;;;;5054282;28;20463;-88
2023/07/16 13:08:21;;;;;;;5.97;4.25;;;;;;;;;;5050859;28;20767;-88
2023/07/16 13:10:47;;;;;;;4.43;3.00;;;;;;;;;;5056555;28;20377;-87
2023/07/16 13:13:13;;;;;;;3.25;2.20;;;;;;;;;;5047822;28;20954;-88
2023/07/16 13:15:39;;;;;;;3.28;2.17;;;;;;;;;;5056766;28;20504;-88
2023/07/16 13:18:05;;;;;;;4.63;3.28;;;;;;;;;;5054119;28;20377;-88
2023/07/16 13:20:31;;;;;;;3.13;1.52;;;;;;;;;;5044504;28;20396;-88
2023/07/16 13:22:58;;;;;;;2.25;1.75;;;;;;;;;;5041355;28;20368;-88
2023/07/16 13:25:24;;;;;;;3.45;1.77;;;;;;;;;;5056826;28;20385;-88
2023/07/16 13:27:50;;;;;;;2.80;1.58;;;;;;;;;;5056643;28;20495;-88
2023/07/16 13:30:16;;;;;;;2.97;1.90;;;;;;;;;;5056509;28;20408;-88
2023/07/16 13:32:42;;;;;;;2.03;1.23;;;;;;;;;;5056752;28;20392;-88
2023/07/16 13:35:09;;;;;;;2.27;1.30;;;;;;;;;;5056565;28;20393;-88
2023/07/16 13:37:35;;;;;;;2.95;1.42;;;;;;;;;;5060111;28;20459;-88
2023/07/16 13:40:01;;;;;;;2.30;1.90;;;;;;;;;;5061696;28;20449;-87
2023/07/16 13:42:27;;;;;;;3.03;1.80;;;;;;;;;;5056782;28;20727;-88
2023/07/16 13:44:53;;;;;;;2.33;1.30;;;;;;;;;;5055970;28;20378;-88
2023/07/16 13:47:20;;;;;;;3.13;1.40;;;;;;;;;;5056179;28;20462;-88
2023/07/16 13:49:47;;;;;;;2.13;1.60;;;;;;;;;;5056126;28;20388;-88
2023/07/16 13:52:13;;;;;;;4.53;3.35;;;;;;;;;;5056129;28;20385;-88
2023/07/16 13:54:38;;;;;;;3.88;2.00;;;;;;;;;;5056479;28;20877;-88
2023/07/16 13:57:05;;;;;;;3.78;2.88;;;;;;;;;;5057676;28;20417;-89
2023/07/16 13:59:31;;;;;;;5.45;2.38;;;;;;;;;;5053890;28;20389;-88
2023/07/16 14:02:04;;;;;;;4.32;3.45;;;;;;;;;;5047557;28;20379;-88
2023/07/16 14:04:30;;;;;;;3.65;2.58;;;;;;;;;;5042606;28;20862;-88
2023/07/16 14:06:56;;;;;;;2.85;1.60;;;;;;;;;;5059645;28;20874;-89
2023/07/16 14:09:22;;;;;;;3.05;1.42;;;;;;;;;;5049177;28;20369;-89
2023/07/16 14:11:48;;;;;;;3.75;3.15;;;;;;;;;;5051398;28;20385;-88
2023/07/16 14:14:15;;;;;;;3.15;2.50;;;;;;;;;;5055475;28;20388;-87
2023/07/16 14:16:41;;;;;;;5.25;3.05;;;;;;;;;;5051454;28;20405;-88
2023/07/16 14:19:07;;;;;;;2.55;1.80;;;;;;;;;;5046909;28;20870;-88
2023/07/16 14:21:33;;;;;;;4.20;2.50;;;;;;;;;;5056376;28;20461;-88
2023/07/16 14:23:59;;;;;;;4.20;2.03;;;;;;;;;;5056195;28;20801;-89
2023/07/16 14:26:25;;;;;;;3.28;1.60;;;;;;;;;;5055026;28;21727;-88
2023/07/16 14:28:51;;;;;;;1.75;1.38;;;;;;;;;;5041954;28;20771;-89
2023/07/16 14:31:17;;;;;;;3.80;1.40;;;;;;;;;;5056485;28;20385;-90
2023/07/16 14:33:43;;;;;;;2.38;1.30;;;;;;;;;;5056091;28;20800;-88
2023/07/16 14:36:09;;;;;;;2.38;1.35;;;;;;;;;;5056331;28;20407;-90
2023/07/16 14:38:35;;;;;;;2.42;1.20;;;;;;;;;;5056007;28;20381;-89
2023/07/16 14:41:01;;;;;;;2.58;1.52;;;;;;;;;;5054397;28;20834;-89